Capitol Logistics 371




KMIA
Miami International Airport
Miami, Florida
KCLT
Charlotte/Douglas International Airport
Charlotte, North Carolina

Route Details

Aircraft Information
Primary: Boeing 737-800BCF
Backup: Boeing 757-200SF
Route Data
Distance: 567nm
Duration: 1h 55m
Recm'd Route: HEDLY2 HEDLY STYMY ZERBO Q87 VIYAP CHECR STOCR3
Origin Wx: KMIA 020353Z 19004KT 10SM FEW028 SCT034 SCT250 29/25 A3009 RMK AO2 SLP190 T02940250 $
Dest. Wx: KCLT 020352Z 33005KT 10SM FEW060 SCT250 24/19 A2996 RMK AO2 SLP133 T02390194
Notes: